Aeroporto :
LOGIN :

Iscrizione | Disclaimer

   EN    FR    IT 

 










Sommario :    VFR   VFR Marginale   IFR   IFR Intensivo   IFR Molto Intensivo
Visibilità : 
Base nubi : 
>= 8 km
>= 3000ft
5 / 8 km
1000 / 3000 ft
1500m / 5 km
500 / 1000 ft
800 / 1500m
200 / 500 ft
< 800m
< 200 ft
Simboli :   Temporali  Nebbia  Neve Forte  Precipitazioni Forti  Vento > 20 kt
SIGMETs :   Varie  Temporali  Ghiacco  Turbolenza  Onda orograficha  Ceneri Vulcaniche






- Altitudine del aeroporto : 187 ft


ETNW - Wunstorf AB

ULTIMO METAR :
  • 251120Z 34016KT 9999 FEW030 BKN037 14/07 Q1031 BLU BLU

METARs OBSOLETI :
  • 251020Z 33013KT 9999 FEW027 BKN033 13/07 Q1031 BLU BLU
  • 250920Z 34012KT 9999 BKN030 13/07 Q1030 BLU BLU

TAF TAF ETNW
Valido dal 25 a 11 ore il 26 a 11 ore UTC


251000Z 2511/2611 32013G23KT 9999 NSW SCT040
TEMPO 2511/2517 31015G28KT 9999 NSW BKN040
BECMG 2517/2519 29005KT 8000 NSW FEW030
PROB30 2523/2608 VRB03KT 2000 BR SKC BY ETGL



MetMap, La meteo Aeronautica in un colpo d'occhio ! - Copyright ORBIFLY Dicembre 2007 - Disclaimer

ORBIFLY MET'MAP TEAM :

Programmazione e sviluppo : Alexandra Zaïnal
Concezione : Baudouin d'Aumeries
Aiuto per la programmazione : Marc-Olivier Méhu
Supporto tecnico e logistico : Manuel Goepfert
Aiuto per la traduzione : Arnaldo La Scala

Contatto : metmap@orbifly.com




FONTI E CREDITI :

   NOAA